Flight Track Log - Related Links

Times and Time Zones

All times are in EDT time to prevent confusion due to time zone crossing. See the KAP927 flight status page for this flight to view local times or setup timezone preferences in your user account.

Time Position Orientation Groundspeed Altitude Reporting Facility
EDT Latitude Longitude Course Direction KTS MPH feet Rate Location/Type
Thu 05:28:41 PM 44.5531 -75.3797 149° Southeast 156 180 3,400  Level Boston Center
Thu 05:29:39 PM 44.5203 -75.3575 154° Southeast 149 171 3,700 407 Climbing Boston Center
Thu 05:30:39 PM 44.4856 -75.3325 153° Southeast 137 158 4,200 446 Climbing Boston Center
Thu 05:31:40 PM 44.4531 -75.2961 141° Southeast 143 165 4,600 397 Climbing Boston Center
Thu 05:32:40 PM 44.4183 -75.2653 148° Southeast 143 165 5,000 496 Climbing Boston Center
Thu 05:33:00 PM 44.4902 -75.2947 149° Southeast  Level Estimated
Thu 05:33:41 PM 44.3836 -75.2375 150° Southeast 143 165 5,600  Level Boston Center
Thu 05:34:41 PM 44.3531 -75.2100 147° Southeast 137 158 6,100 545 Climbing Boston Center
Thu 05:35:42 PM 44.3203 -75.1794 146° Southeast 137 158 6,700 559 Climbing Boston Center
Thu 05:36:39 PM 44.2878 -75.1519 149° Southeast 137 158 7,200 407 Climbing Boston Center
Thu 05:37:40 PM 44.2611 -75.1275 147° Southeast 137 158 7,500 443 Climbing Boston Center
Thu 05:38:41 PM 44.2183 -75.0850 145° Southeast 142 163 8,100 496 Climbing Boston Center
Thu 05:39:41 PM 44.1817 -75.0544 149° Southeast 142 163 8,500 350 Climbing Boston Center
Thu 05:40:41 PM 44.1447 -75.0208 147° Southeast 147 169 8,800 356 Climbing Boston Center
Thu 05:41:39 PM 44.1081 -74.9875 147° Southeast 152 175 9,200 303 Climbing Boston Center
Thu 05:42:40 PM 44.0692 -74.9511 146° Southeast 162 186 9,400 149 Climbing Boston Center
Thu 05:43:40 PM 44.0264 -74.9147 149° Southeast 167 192 9,500 50 Climbing Boston Center
Thu 05:44:41 PM 43.9856 -74.8756 145° Southeast 172 198 9,500 -50 Level Boston Center
Thu 05:45:41 PM 43.9425 -74.8364 147° Southeast 178 205 9,400  Descending Boston Center
Thu 05:46:41 PM 43.8975 -74.8000 150° Southeast 178 205 9,500 51 Climbing Boston Center
Thu 05:47:39 PM 43.8544 -74.7608 147° Southeast 178 205 9,500  Level Boston Center
Thu 05:48:40 PM 43.8114 -74.7244 149° Southeast 178 205 9,500  Level Boston Center
Thu 05:49:40 PM 43.7683 -74.6856 147° Southeast 178 205 9,500 -50 Level Boston Center
Thu 05:50:40 PM 43.7233 -74.6464 148° Southeast 178 205 9,400 -50 Descending Boston Center
Thu 05:51:41 PM 43.6783 -74.6017 144° Southeast 183 211 9,400 45 Level Boston Center
Thu 05:52:53 PM 43.6353 -74.5658 149° Southeast 183 211 9,500  Climbing Boston Center
Thu 05:53:51 PM 43.5800 -74.5150 146° Southeast 183 211 9,400  Descending Boston Center
Thu 05:54:51 PM 43.5347 -74.4792 150° Southeast 183 211 9,500 50 Climbing Boston Center
Thu 05:55:52 PM 43.4894 -74.4461 152° Southeast 183 211 9,500  Level Boston Center
Thu 05:56:53 PM 43.4464 -74.4047 145° Southeast 183 211 9,500 -149 Level Boston Center
Thu 05:57:53 PM 43.4033 -74.3606 143° Southeast 183 211 9,200 -350 Descending Boston Center
Thu 05:58:53 PM 43.3561 -74.3189 147° Southeast 189 217 8,800 -407 Descending Boston Center
Thu 05:59:51 PM 43.3131 -74.2806 147° Southeast 194 223 8,400 -555 Descending Boston Center
Thu 06:00:52 PM 43.2617 -74.2278 143° Southeast 201 231 7,700 -545 Descending Boston Center
Thu 06:01:52 PM 43.2167 -74.1836 144° Southeast 212 244 7,300 -450 Descending Boston Center
Thu 06:02:52 PM 43.1631 -74.1308 144° Southeast 212 244 6,800 -527 Descending Boston Center
Thu 06:03:23 PM 43.1425 -74.1103 144° Southeast 215 247 6,500 -590 Descending Boston Center
Thu 06:03:53 PM 43.1200 -74.0869 143° Southeast 217 250 6,200 -600 Descending Boston Center
Thu 06:04:23 PM 43.0933 -74.0636 147° Southeast 217 250 5,900 -700 Descending Boston Center
Thu 06:04:53 PM 43.0667 -74.0344 141° Southeast 217 250 5,500 -607 Descending Boston Center
Thu 06:05:52 PM 43.0233 -73.9878 142° Southeast 217 250 5,000 -539 Descending Boston Center
Thu 06:06:22 PM 42.9925 -73.9617 148° Southeast 210 242 4,700 -590 Descending Boston Center
Thu 06:06:53 PM 42.9719 -73.9383 140° Southeast 217 250 4,400 -590 Descending Boston Center
Thu 06:07:23 PM 42.9472 -73.9178 149° Southeast 204 235 4,100 -400 Descending Boston Center
Thu 06:07:53 PM 42.9328 -73.9006 139° Southeast 212 244 4,000 -286 Descending Boston Center
Thu 06:08:26 PM 42.9042 -73.8744 146° Southeast 191 220 3,800 -447 Descending Boston Center
Thu 06:09:27 PM 42.8650 -73.8308 141° Southeast 186 214 3,300 -522 Descending Boston Center
Thu 06:10:21 PM 42.8386 -73.7794 125° Southeast 175 201 2,800 -357 Descending Boston Center
Thu 06:10:51 PM 42.8136 -73.7619 153° Southeast 181 208 2,800 -492 Level Boston Center
Thu 06:11:22 PM 42.8142 -73.7278 89° East 167 192 2,300 -885 Descending Boston Center
Thu 06:11:52 PM 42.7914 -73.7075 147° Southeast 156 180 1,900 -417 Descending Boston Center
Thu 06:13:17 PM 42.7517 -73.7097 182° South 130 150 1,500 -372 Descending Boston Center
Thu 06:14:17 PM 42.7514 -73.7492 269° West 87 100 1,000 -545 Descending Boston Center
Thu 06:15:18 PM 42.7489 -73.7831 264° West 90 104 400 21 Descending Boston Center
Thu 06:42:37 PM 42.7500 -73.8567 269° West 107 123 1,600 67 Climbing Boston Center
Thu 06:43:44 PM 42.7664 -73.8908 303° West 107 123 2,300 582 Climbing Boston Center
Thu 06:44:51 PM 42.7972 -73.9172 328° Northwest 114 131 2,900 520 Climbing Boston Center
Thu 06:45:51 PM 42.8261 -73.9406 329° Northwest 124 143 3,400 496 Climbing Boston Center
Thu 06:46:52 PM 42.8550 -73.9667 326° Northwest 126 145 3,900 492 Climbing Boston Center
Thu 06:47:53 PM 42.8839 -73.9900 329° Northwest 124 143 4,400 466 Climbing Boston Center
Thu 06:48:48 PM 42.9128 -74.0133 329° Northwest 123 142 4,800 470 Climbing Boston Center
Thu 06:49:48 PM 42.9436 -74.0397 328° Northwest 128 147 5,300 504 Climbing Boston Center
Thu 06:50:47 PM 42.9725 -74.0633 329° Northwest 127 146 5,800 432 Climbing Boston Center
Thu 06:51:53 PM 43.0014 -74.0839 333° Northwest 128 147 6,200 339 Climbing Boston Center
Thu 06:52:51 PM 43.0383 -74.1103 332° Northwest 138 159 6,500 101 Climbing Boston Center
Thu 06:53:52 PM 43.0714 -74.1369 329° Northwest 138 159 6,400  Descending Boston Center
Thu 06:54:53 PM 43.1106 -74.1692 329° Northwest 143 165 6,500 49 Climbing Boston Center
Thu 06:55:54 PM 43.1456 -74.1958 331° Northwest 148 170 6,500  Level Boston Center
Thu 06:56:51 PM 43.1825 -74.2253 330° Northwest 148 170 6,500 -51 Level Boston Center
Thu 06:57:52 PM 43.2133 -74.2492 331° Northwest 143 165 6,400  Descending Boston Center
Thu 06:58:52 PM 43.2506 -74.2758 332° Northwest 138 159 6,500  Climbing Boston Center
Thu 06:59:53 PM 43.2814 -74.2967 334° Northwest 138 159 6,400 -50 Descending Boston Center
Thu 07:00:51 PM 43.3103 -74.3206 329° Northwest 138 159 6,400 51 Level Boston Center
Thu 07:01:51 PM 43.3453 -74.3500 329° Northwest 133 153 6,500 50 Climbing Boston Center
Thu 07:02:52 PM 43.3800 -74.3797 328° Northwest 133 153 6,500  Level Boston Center
Thu 07:03:53 PM 43.4108 -74.4094 325° Northwest 133 153 6,500  Level Boston Center

Login

Don't have an account? Register now (free) for customized features, flight alerts, and more!